createdAt,value
2022-12-01T00:02:02.884Z,97.61
2022-12-01T00:04:29.442Z,97.15
2022-12-01T00:06:55.882Z,97.20
2022-12-01T00:09:40.875Z,97.42
2022-12-01T00:12:07.600Z,97.63
2022-12-01T00:14:34.004Z,97.55
2022-12-01T00:17:00.421Z,96.89
2022-12-01T00:19:27.451Z,97.61
2022-12-01T00:21:54.282Z,96.83
2022-12-01T00:24:23.364Z,96.66
2022-12-01T00:26:50.176Z,97.17
2022-12-01T00:29:16.582Z,97.56
2022-12-01T00:31:43.138Z,97.53
2022-12-01T00:34:22.495Z,96.95
2022-12-01T00:36:48.910Z,96.76
2022-12-01T00:39:15.491Z,97.93
2022-12-01T00:41:42.069Z,97.56
2022-12-01T00:44:08.475Z,98.13
2022-12-01T00:46:34.963Z,97.12
2022-12-01T00:49:01.675Z,97.57
2022-12-01T00:51:28.062Z,97.62
2022-12-01T00:53:54.453Z,97.00
2022-12-01T00:56:21.130Z,96.86
2022-12-01T00:58:47.534Z,97.40
2022-12-01T01:01:14.097Z,97.25
2022-12-01T01:03:40.627Z,97.85
2022-12-01T01:06:09.681Z,97.97
2022-12-01T01:08:36.894Z,97.01
2022-12-01T01:11:04.154Z,98.19
2022-12-01T01:13:30.710Z,97.89
2022-12-01T01:16:01.895Z,97.87
2022-12-01T01:18:28.518Z,97.33
2022-12-01T01:21:03.554Z,98.22
2022-12-01T01:23:29.988Z,98.02
2022-12-01T01:26:04.008Z,97.09
2022-12-01T01:28:31.359Z,97.50
2022-12-01T01:30:58.220Z,97.46
2022-12-01T01:33:24.775Z,97.60
2022-12-01T01:35:51.235Z,97.31
2022-12-01T01:38:17.649Z,97.23
2022-12-01T01:40:47.526Z,97.15
2022-12-01T01:43:16.196Z,97.46
2022-12-01T01:45:42.911Z,97.13
2022-12-01T01:48:10.706Z,97.50
2022-12-01T01:50:37.469Z,97.68
2022-12-01T01:53:12.282Z,97.23
2022-12-01T01:55:38.767Z,97.17
2022-12-01T01:58:08.247Z,96.47
2022-12-01T02:00:35.953Z,97.48
2022-12-01T02:03:02.517Z,97.16
2022-12-01T02:05:32.305Z,97.38
2022-12-01T02:07:59.554Z,97.09
2022-12-01T02:10:43.524Z,97.06
2022-12-01T02:13:51.343Z,97.17
2022-12-01T02:16:24.341Z,96.44
2022-12-01T02:19:15.246Z,96.28
2022-12-01T02:22:19.344Z,97.36
2022-12-01T02:25:07.395Z,96.74
2022-12-01T02:27:36.920Z,96.43
2022-12-01T02:30:51.216Z,98.17
2022-12-01T02:33:27.853Z,97.24
2022-12-01T02:36:49.691Z,97.38
2022-12-01T02:39:25.003Z,96.90
2022-12-01T02:41:56.208Z,97.88
2022-12-01T02:44:43.774Z,97.00
2022-12-01T02:47:17.637Z,97.69
2022-12-01T02:49:47.883Z,96.88
2022-12-01T02:52:15.207Z,96.26
2022-12-01T02:54:43.450Z,96.70
2022-12-01T02:57:14.657Z,96.68
2022-12-01T02:59:42.461Z,96.92
2022-12-01T03:02:32.267Z,97.37
2022-12-01T03:05:14.270Z,97.04
2022-12-01T03:07:43.786Z,97.70
2022-12-01T03:10:20.039Z,96.96
2022-12-01T03:13:19.935Z,97.55
2022-12-01T03:16:08.203Z,98.06
2022-12-01T03:18:46.260Z,97.44
2022-12-01T03:21:26.399Z,97.56
2022-12-01T03:24:00.042Z,98.59
2022-12-01T03:26:29.596Z,98.15
2022-12-01T03:28:59.751Z,97.68
2022-12-01T03:31:33.275Z,98.18
2022-12-01T03:34:04.878Z,97.33
2022-12-01T03:36:39.444Z,97.91
2022-12-01T03:39:11.130Z,97.71
2022-12-01T03:41:41.001Z,97.82
2022-12-01T03:44:15.070Z,97.93
2022-12-01T03:46:48.255Z,98.89
2022-12-01T03:49:17.247Z,98.93
2022-12-01T03:51:50.760Z,98.83
2022-12-01T03:54:17.153Z,98.22
2022-12-01T03:56:48.009Z,98.94
2022-12-01T03:59:16.230Z,98.67
2022-12-01T04:01:42.876Z,98.32
2022-12-01T04:04:11.855Z,98.29
2022-12-01T04:06:40.654Z,98.91
2022-12-01T04:09:07.057Z,99.24
2022-12-01T04:11:52.203Z,99.27
2022-12-01T04:14:18.692Z,99.90
2022-12-01T04:16:45.057Z,99.62
2022-12-01T04:19:11.720Z,99.65
2022-12-01T04:21:38.152Z,99.75
2022-12-01T04:24:04.729Z,99.61
2022-12-01T04:26:33.585Z,100.00
2022-12-01T04:29:01.382Z,100.00
2022-12-01T04:31:28.466Z,100.00
2022-12-01T04:33:56.059Z,100.00
2022-12-01T04:36:23.562Z,100.00
2022-12-01T04:38:50.042Z,100.00
2022-12-01T04:41:16.617Z,100.00
2022-12-01T04:43:43.073Z,100.00
2022-12-01T04:46:10.410Z,100.00
2022-12-01T04:48:38.404Z,100.00
2022-12-01T04:51:06.615Z,100.00
2022-12-01T04:53:33.332Z,100.00
2022-12-01T04:56:00.693Z,100.00
2022-12-01T04:58:31.242Z,100.00
2022-12-01T05:01:09.193Z,100.00
2022-12-01T05:03:40.130Z,100.00
2022-12-01T05:06:14.657Z,100.00
2022-12-01T05:08:41.238Z,100.00
2022-12-01T05:11:08.504Z,100.00
2022-12-01T05:13:37.196Z,100.00
2022-12-01T05:16:08.069Z,100.00
2022-12-01T05:18:34.766Z,100.00
2022-12-01T05:21:01.309Z,100.00
2022-12-01T05:23:29.969Z,100.00
2022-12-01T05:25:56.407Z,100.00
2022-12-01T05:28:24.852Z,100.00
2022-12-01T05:30:51.501Z,100.00
2022-12-01T05:33:18.064Z,100.00
2022-12-01T05:35:44.527Z,100.00
2022-12-01T05:38:11.094Z,100.00
2022-12-01T05:40:38.121Z,100.00
2022-12-01T05:43:04.756Z,100.00
2022-12-01T05:45:31.197Z,100.00
2022-12-01T05:47:59.037Z,100.00
2022-12-01T05:50:27.185Z,100.00
2022-12-01T05:52:53.592Z,100.00
2022-12-01T05:55:20.011Z,100.00
2022-12-01T05:57:46.428Z,100.00
2022-12-01T06:00:14.188Z,100.00
2022-12-01T06:02:41.617Z,100.00
2022-12-01T06:05:09.086Z,100.00
2022-12-01T06:07:35.762Z,100.00
2022-12-01T06:10:03.150Z,100.00
2022-12-01T06:12:29.574Z,100.00
2022-12-01T06:14:56.019Z,100.00
2022-12-01T06:17:22.479Z,100.00
2022-12-01T06:19:49.193Z,100.00
2022-12-01T06:22:15.814Z,100.00
2022-12-01T06:24:42.212Z,100.00
2022-12-01T06:27:08.574Z,100.00
2022-12-01T06:29:40.557Z,100.00
2022-12-01T06:32:08.645Z,100.00
2022-12-01T06:34:35.271Z,100.00
2022-12-01T06:37:01.772Z,100.00
2022-12-01T06:39:28.186Z,100.00
2022-12-01T06:41:54.582Z,100.00
2022-12-01T06:44:21.011Z,100.00
2022-12-01T06:46:47.489Z,100.00
2022-12-01T06:49:13.930Z,100.00
2022-12-01T06:51:40.354Z,100.00
2022-12-01T06:54:06.755Z,100.00
2022-12-01T06:56:34.349Z,100.00
2022-12-01T06:59:01.178Z,100.00
2022-12-01T07:01:28.361Z,100.00
2022-12-01T07:03:55.102Z,100.00
2022-12-01T07:06:21.809Z,100.00
2022-12-01T07:08:48.189Z,100.00
2022-12-01T07:11:16.294Z,100.00
2022-12-01T07:13:45.328Z,100.00
2022-12-01T07:16:12.147Z,100.00
2022-12-01T07:18:38.671Z,100.00
2022-12-01T07:21:07.153Z,100.00
2022-12-01T07:23:33.974Z,100.00
2022-12-01T07:26:10.059Z,100.00
2022-12-01T07:28:36.525Z,100.00
2022-12-01T07:31:05.224Z,100.00
2022-12-01T07:33:32.175Z,100.00
2022-12-01T07:35:59.235Z,100.00
2022-12-01T07:38:28.174Z,100.00
2022-12-01T07:40:54.632Z,100.00
2022-12-01T07:43:21.137Z,100.00
2022-12-01T07:45:51.730Z,100.00
2022-12-01T07:48:18.251Z,100.00
2022-12-01T07:50:44.679Z,100.00
2022-12-01T07:53:11.062Z,100.00
2022-12-01T07:55:37.463Z,100.00
2022-12-01T07:58:03.948Z,100.00
2022-12-01T08:00:30.359Z,100.00
2022-12-01T08:02:56.830Z,100.00
2022-12-01T08:05:23.254Z,100.00
2022-12-01T08:07:49.773Z,100.00
2022-12-01T08:10:16.299Z,100.00
2022-12-01T08:12:42.719Z,100.00
2022-12-01T08:15:09.615Z,100.00
2022-12-01T08:17:36.061Z,100.00
2022-12-01T08:20:02.554Z,100.00
2022-12-01T08:22:28.952Z,100.00
2022-12-01T08:24:55.356Z,100.00
2022-12-01T08:27:21.801Z,100.00
2022-12-01T08:29:48.560Z,100.00
2022-12-01T08:32:16.939Z,100.00
2022-12-01T08:34:43.403Z,100.00
2022-12-01T08:37:09.787Z,100.00
2022-12-01T08:39:36.386Z,100.00
2022-12-01T08:42:02.919Z,100.00
2022-12-01T08:44:29.374Z,100.00
2022-12-01T08:46:55.927Z,100.00
2022-12-01T08:49:22.951Z,100.00
2022-12-01T08:51:49.419Z,100.00
2022-12-01T08:54:15.850Z,100.00
2022-12-01T08:56:44.017Z,100.00
2022-12-01T08:59:10.602Z,100.00
2022-12-01T09:01:51.983Z,100.00
2022-12-01T09:04:23.342Z,100.00
2022-12-01T09:06:51.041Z,100.00
2022-12-01T09:09:20.405Z,100.00
2022-12-01T09:11:47.193Z,100.00
2022-12-01T09:14:15.286Z,100.00
2022-12-01T09:16:42.904Z,100.00
2022-12-01T09:19:10.862Z,100.00
2022-12-01T09:21:38.658Z,100.00
2022-12-01T09:24:06.498Z,100.00
2022-12-01T09:26:33.734Z,100.00
2022-12-01T09:29:03.277Z,100.00
2022-12-01T09:31:29.792Z,100.00
2022-12-01T09:33:58.959Z,100.00
2022-12-01T09:36:26.264Z,100.00
2022-12-01T09:38:52.771Z,100.00
2022-12-01T09:41:22.932Z,100.00
2022-12-01T09:43:58.651Z,100.00
2022-12-01T09:46:37.351Z,100.00
2022-12-01T09:49:04.520Z,100.00
2022-12-01T09:51:36.033Z,100.00
2022-12-01T09:54:03.019Z,100.00
2022-12-01T09:56:32.571Z,100.00
2022-12-01T09:59:01.904Z,100.00
2022-12-01T10:01:37.657Z,100.00
2022-12-01T10:04:13.817Z,100.00
2022-12-01T10:07:00.898Z,100.00
2022-12-01T10:09:39.291Z,100.00
2022-12-01T10:12:13.746Z,100.00
2022-12-01T10:14:40.234Z,100.00
2022-12-01T10:17:21.987Z,100.00
2022-12-01T10:20:19.545Z,100.00
2022-12-01T10:23:09.196Z,100.00
2022-12-01T10:25:50.828Z,100.00
2022-12-01T10:28:25.539Z,100.00
2022-12-01T10:30:53.367Z,100.00
2022-12-01T10:33:24.263Z,100.00
2022-12-01T10:35:51.227Z,100.00
2022-12-01T10:38:35.529Z,100.00
2022-12-01T10:41:04.420Z,100.00
2022-12-01T10:43:57.586Z,100.00
2022-12-01T10:46:35.046Z,100.00
2022-12-01T10:49:11.883Z,99.10
2022-12-01T10:51:58.191Z,100.00
2022-12-01T10:54:36.248Z,99.70
2022-12-01T10:57:03.458Z,99.84
2022-12-01T10:59:29.761Z,99.84
2022-12-01T11:01:57.266Z,100.00
2022-12-01T11:04:46.195Z,100.00
2022-12-01T11:07:26.211Z,99.95
2022-12-01T11:10:04.113Z,99.58
2022-12-01T11:12:31.484Z,99.18
2022-12-01T11:14:58.032Z,99.31
2022-12-01T11:17:35.151Z,99.44
2022-12-01T11:20:35.418Z,100.00
2022-12-01T11:23:24.338Z,99.11
2022-12-01T11:26:17.651Z,98.84
2022-12-01T11:28:56.241Z,98.92
2022-12-01T11:31:34.840Z,98.01
2022-12-01T11:34:01.448Z,98.67
2022-12-01T11:36:38.021Z,99.07
2022-12-01T11:39:04.959Z,99.15
2022-12-01T11:41:36.133Z,98.27
2022-12-01T11:44:06.227Z,97.40
2022-12-01T11:46:46.250Z,98.09
2022-12-01T11:49:29.499Z,98.02
2022-12-01T11:51:56.000Z,97.23
2022-12-01T11:54:24.531Z,96.25
2022-12-01T11:57:17.395Z,97.15
2022-12-01T11:59:38.885Z,96.74
2022-12-01T12:02:39.744Z,96.26
2022-12-01T12:05:36.827Z,95.54
2022-12-01T12:08:10.210Z,96.17
2022-12-01T12:11:11.257Z,96.35
2022-12-01T12:13:49.683Z,94.11
2022-12-01T12:16:50.446Z,94.88
2022-12-01T12:20:08.890Z,94.99
2022-12-01T12:22:53.714Z,94.95
2022-12-01T12:25:32.554Z,94.94
2022-12-01T12:28:27.750Z,95.25
2022-12-01T12:31:10.032Z,94.62
2022-12-01T12:33:51.528Z,94.72
2022-12-01T12:36:40.030Z,93.97
2022-12-01T12:39:18.700Z,95.34
2022-12-01T12:41:46.529Z,94.71
2022-12-01T12:44:36.583Z,93.16
2022-12-01T12:47:09.596Z,94.33
2022-12-01T12:50:09.922Z,92.56
2022-12-01T12:52:41.068Z,92.87
2022-12-01T12:55:16.908Z,93.50
2022-12-01T12:57:54.302Z,94.14
2022-12-01T13:00:25.310Z,92.97
2022-12-01T13:02:54.715Z,92.71
2022-12-01T13:05:36.159Z,93.84
2022-12-01T13:08:13.047Z,93.60
2022-12-01T13:10:59.515Z,93.62
2022-12-01T13:13:29.473Z,93.94
2022-12-01T13:15:56.741Z,92.89
2022-12-01T13:18:26.885Z,92.38
2022-12-01T13:20:54.618Z,92.85
2022-12-01T13:23:21.937Z,92.35
2022-12-01T13:25:51.691Z,91.71
2022-12-01T13:28:24.565Z,93.58
2022-12-01T13:30:59.631Z,92.55
2022-12-01T13:33:26.298Z,92.70
2022-12-01T13:36:22.554Z,92.75
2022-12-01T13:38:40.555Z,92.32
2022-12-01T13:41:19.010Z,92.81
2022-12-01T13:44:20.337Z,92.95
2022-12-01T13:46:52.832Z,93.56
2022-12-01T13:49:40.779Z,92.61
2022-12-01T13:52:22.616Z,93.29
2022-12-01T13:55:10.726Z,92.76
2022-12-01T13:57:41.539Z,92.11
2022-12-01T14:00:23.940Z,92.06
2022-12-01T14:03:15.315Z,93.51
2022-12-01T14:05:41.709Z,93.16
2022-12-01T14:08:27.543Z,93.06
2022-12-01T14:10:59.957Z,92.91
2022-12-01T14:13:27.214Z,92.46
2022-12-01T14:16:02.148Z,92.54
2022-12-01T14:18:42.858Z,93.37
2022-12-01T14:21:11.180Z,92.74
2022-12-01T14:23:41.210Z,92.96
2022-12-01T14:26:19.057Z,92.72
2022-12-01T14:29:10.378Z,93.57
2022-12-01T14:31:37.569Z,92.41
2022-12-01T14:34:26.496Z,92.33
2022-12-01T14:36:57.624Z,91.92
2022-12-01T14:39:39.082Z,91.88
2022-12-01T14:42:11.697Z,92.57
2022-12-01T14:44:43.284Z,92.09
2022-12-01T14:47:20.663Z,91.62
2022-12-01T14:50:01.247Z,91.56
2022-12-01T14:52:35.961Z,92.04
2022-12-01T14:55:12.327Z,91.46
2022-12-01T14:57:42.925Z,93.10
2022-12-01T15:00:14.050Z,92.67
2022-12-01T15:02:41.692Z,92.33
2022-12-01T15:05:13.969Z,91.47
2022-12-01T15:07:46.597Z,91.16
2022-12-01T15:10:17.535Z,90.40
2022-12-01T15:12:44.055Z,91.21
2022-12-01T15:15:25.537Z,91.35
2022-12-01T15:17:55.791Z,90.79
2022-12-01T15:20:32.759Z,90.57
2022-12-01T15:23:00.159Z,91.63
2022-12-01T15:25:35.278Z,92.31
2022-12-01T15:28:12.316Z,91.01
2022-12-01T15:30:41.080Z,91.69
2022-12-01T15:33:15.553Z,92.78
2022-12-01T15:35:42.497Z,92.79
2022-12-01T15:38:16.873Z,92.07
2022-12-01T15:41:27.833Z,92.06
2022-12-01T15:43:37.954Z,92.15
2022-12-01T15:46:17.061Z,91.79
2022-12-01T15:48:44.122Z,91.63
2022-12-01T15:51:19.673Z,91.82
2022-12-01T15:53:53.671Z,92.46
2022-12-01T15:56:28.904Z,93.04
2022-12-01T15:58:58.635Z,93.64
2022-12-01T16:01:29.383Z,92.78
2022-12-01T16:03:56.673Z,92.33
2022-12-01T16:06:27.168Z,92.05
2022-12-01T16:08:59.547Z,93.01
2022-12-01T16:11:26.742Z,93.12
2022-12-01T16:14:00.338Z,93.46
2022-12-01T16:16:40.105Z,92.66
2022-12-01T16:19:09.622Z,91.74
2022-12-01T16:21:54.011Z,92.61
2022-12-01T16:24:31.357Z,90.98
2022-12-01T16:27:00.811Z,92.29
2022-12-01T16:29:31.498Z,91.57
2022-12-01T16:32:20.230Z,91.80
2022-12-01T16:34:47.366Z,92.13
2022-12-01T16:37:14.821Z,92.00
2022-12-01T16:39:41.481Z,91.35
2022-12-01T16:42:14.821Z,91.24
2022-12-01T16:44:42.618Z,91.60
2022-12-01T16:47:25.621Z,91.68
2022-12-01T16:49:52.584Z,91.21
2022-12-01T16:52:43.627Z,91.33
2022-12-01T16:55:22.934Z,92.19
2022-12-01T16:57:49.612Z,91.62
2022-12-01T17:00:16.451Z,91.63
2022-12-01T17:02:42.930Z,91.54
2022-12-01T17:05:10.756Z,90.93
2022-12-01T17:07:37.202Z,91.51
2022-12-01T17:10:04.295Z,92.33
2022-12-01T17:12:30.762Z,92.11
2022-12-01T17:14:57.177Z,92.18
2022-12-01T17:17:23.730Z,91.09
2022-12-01T17:19:52.658Z,90.87
2022-12-01T17:22:19.036Z,91.10
2022-12-01T17:24:45.461Z,92.03
2022-12-01T17:27:11.848Z,91.06
2022-12-01T17:29:45.727Z,91.46
2022-12-01T17:32:13.671Z,91.76
2022-12-01T17:34:40.233Z,91.83
2022-12-01T17:37:06.615Z,91.14
2022-12-01T17:39:33.005Z,90.65
2022-12-01T17:41:59.391Z,91.38
2022-12-01T17:44:25.806Z,91.64
2022-12-01T17:46:52.282Z,90.60
2022-12-01T17:49:18.770Z,90.47
2022-12-01T17:51:45.182Z,91.20
2022-12-01T17:54:11.803Z,90.19
2022-12-01T17:56:38.195Z,90.13
2022-12-01T17:59:04.577Z,89.60
2022-12-01T18:01:31.135Z,90.75
2022-12-01T18:03:58.847Z,91.64
2022-12-01T18:06:26.704Z,89.98
2022-12-01T18:08:53.705Z,89.92
2022-12-01T18:11:20.564Z,90.42
2022-12-01T18:13:48.810Z,89.99
2022-12-01T18:16:21.084Z,89.74
2022-12-01T18:18:47.972Z,90.03
2022-12-01T18:21:16.724Z,90.00
2022-12-01T18:23:49.547Z,90.72
2022-12-01T18:26:16.425Z,90.32
2022-12-01T18:28:43.498Z,91.66
2022-12-01T18:31:13.392Z,91.25
2022-12-01T18:33:41.267Z,91.13
2022-12-01T18:36:17.088Z,90.42
2022-12-01T18:38:44.085Z,90.52
2022-12-01T18:41:10.527Z,90.37
2022-12-01T18:43:37.275Z,90.96
2022-12-01T18:46:04.667Z,91.26
2022-12-01T18:48:31.218Z,91.54
2022-12-01T18:51:02.837Z,90.76
2022-12-01T18:53:29.307Z,91.71
2022-12-01T18:55:55.741Z,92.40
2022-12-01T18:58:22.138Z,91.74
2022-12-01T19:00:48.643Z,91.93
2022-12-01T19:03:15.853Z,91.28
2022-12-01T19:05:42.265Z,90.99
2022-12-01T19:08:08.685Z,90.95
2022-12-01T19:10:35.138Z,91.15
2022-12-01T19:13:01.601Z,92.03
2022-12-01T19:15:28.045Z,91.69
2022-12-01T19:17:54.914Z,92.21
2022-12-01T19:20:21.401Z,91.58
2022-12-01T19:22:47.786Z,91.24
2022-12-01T19:25:14.325Z,91.63
2022-12-01T19:27:41.037Z,91.62
2022-12-01T19:30:08.044Z,91.42
2022-12-01T19:32:34.591Z,91.81
2022-12-01T19:35:01.055Z,92.48
2022-12-01T19:37:27.474Z,91.31
2022-12-01T19:39:53.945Z,91.98
2022-12-01T19:42:20.347Z,91.75
2022-12-01T19:44:46.851Z,92.40
2022-12-01T19:47:15.540Z,92.46
2022-12-01T19:49:45.543Z,92.50
2022-12-01T19:52:11.962Z,93.11
2022-12-01T19:54:38.855Z,92.79
2022-12-01T19:57:05.448Z,92.77
2022-12-01T19:59:31.993Z,92.47
2022-12-01T20:01:58.507Z,92.69
2022-12-01T20:04:25.094Z,92.12
2022-12-01T20:06:51.477Z,92.92
2022-12-01T20:09:17.895Z,93.28
2022-12-01T20:11:44.409Z,92.93
2022-12-01T20:14:11.644Z,92.65
2022-12-01T20:16:38.110Z,93.21
2022-12-01T20:19:05.589Z,93.10
2022-12-01T20:21:35.159Z,93.13
2022-12-01T20:24:04.153Z,92.96
2022-12-01T20:26:35.950Z,91.61
2022-12-01T20:29:08.829Z,92.16
2022-12-01T20:31:36.795Z,91.58
2022-12-01T20:34:06.896Z,92.29
2022-12-01T20:36:33.653Z,91.32
2022-12-01T20:39:00.232Z,92.02
2022-12-01T20:41:26.613Z,92.00
2022-12-01T20:43:53.148Z,91.97
2022-12-01T20:46:22.246Z,93.01
2022-12-01T20:48:48.670Z,92.59
2022-12-01T20:51:15.380Z,92.70
2022-12-01T20:53:54.420Z,92.74
2022-12-01T20:56:29.146Z,92.76
2022-12-01T20:58:55.611Z,93.61
2022-12-01T21:01:22.512Z,93.25
2022-12-01T21:03:50.774Z,93.07
2022-12-01T21:06:17.748Z,93.27
2022-12-01T21:08:45.629Z,93.91
2022-12-01T21:11:40.456Z,93.08
2022-12-01T21:14:09.724Z,93.23
2022-12-01T21:16:37.272Z,92.83
2022-12-01T21:19:11.260Z,92.37
2022-12-01T21:21:41.504Z,93.47
2022-12-01T21:24:07.846Z,93.89
2022-12-01T21:26:36.480Z,93.80
2022-12-01T21:29:14.660Z,94.00
2022-12-01T21:31:41.089Z,93.98
2022-12-01T21:34:14.249Z,93.38
2022-12-01T21:36:40.633Z,93.41
2022-12-01T21:39:19.750Z,93.25
2022-12-01T21:41:46.274Z,93.74
2022-12-01T21:44:16.375Z,94.34
2022-12-01T21:46:43.624Z,94.41
2022-12-01T21:49:36.662Z,93.69
2022-12-01T21:52:07.256Z,94.07
2022-12-01T21:54:34.844Z,94.83
2022-12-01T21:57:01.309Z,93.39
2022-12-01T21:59:27.949Z,93.71
2022-12-01T22:01:56.266Z,93.38
2022-12-01T22:04:25.063Z,94.53
2022-12-01T22:06:54.974Z,95.32
2022-12-01T22:09:29.675Z,95.21
2022-12-01T22:11:58.155Z,95.39
2022-12-01T22:14:29.123Z,95.53
2022-12-01T22:17:00.075Z,95.38
2022-12-01T22:19:42.292Z,95.61
2022-12-01T22:22:08.635Z,96.19
2022-12-01T22:24:49.584Z,96.11
2022-12-01T22:27:22.093Z,95.77
2022-12-01T22:29:55.795Z,95.55
2022-12-01T22:32:50.249Z,94.52
2022-12-01T22:35:42.242Z,94.33
2022-12-01T22:38:08.710Z,94.19
2022-12-01T22:40:39.855Z,94.82
2022-12-01T22:43:14.016Z,93.74
2022-12-01T22:45:40.659Z,93.60
2022-12-01T22:48:28.706Z,93.78
2022-12-01T22:50:55.420Z,93.71
2022-12-01T22:53:28.275Z,93.60
2022-12-01T22:55:56.571Z,93.07
2022-12-01T22:58:35.318Z,92.87
2022-12-01T23:01:08.174Z,93.26
2022-12-01T23:03:34.605Z,92.99
2022-12-01T23:06:01.535Z,93.46
2022-12-01T23:08:27.993Z,93.06
2022-12-01T23:10:54.371Z,93.25
2022-12-01T23:13:22.909Z,93.60
2022-12-01T23:15:51.302Z,92.85
2022-12-01T23:18:22.626Z,92.12
2022-12-01T23:20:51.606Z,91.04
2022-12-01T23:23:25.999Z,91.08
2022-12-01T23:25:52.369Z,91.51
2022-12-01T23:28:19.128Z,91.99
2022-12-01T23:30:46.708Z,91.10
2022-12-01T23:33:14.823Z,91.66
2022-12-01T23:35:49.031Z,91.49
2022-12-01T23:38:36.263Z,91.64
2022-12-01T23:41:06.225Z,91.89
2022-12-01T23:43:39.938Z,91.62
2022-12-01T23:46:14.673Z,91.11
2022-12-01T23:48:43.499Z,90.58
2022-12-01T23:51:16.943Z,91.58
2022-12-01T23:53:43.315Z,91.81
2022-12-01T23:56:16.968Z,90.72
2022-12-01T23:58:43.758Z,90.75
